Terminal Aerodrome Forecast
Issued by NWS

Current Version | Previous Version | Text Only | Print | Product List | Glossary On
Versions: 1 2 3 4 5 6 7 8 9 10 11 12 13 14 15 16 17
000
FTUS44 KBMX 252300
TAFMGM
TAF
KMGM 252330Z 2600/2624 00000KT P6SM FEW100
      TEMPO 2610/2612 4SM BR
     FM261600 27006KT P6SM FEW050=

USA.gov is the U.S. government's official web portal to all federal, state and local government web resources and services.